sensor_id;sensor_type;location;lat;lon;timestamp;pressure;altitude;pressure_sealevel;temperature;humidity
2268;BME280;11052;43.338;25.502;2023-02-18T00:00:32;101280.69;;;3.11;100.00
2268;BME280;11052;43.338;25.502;2023-02-18T00:02:59;101281.41;;;3.02;100.00
2268;BME280;11052;43.338;25.502;2023-02-18T00:05:27;101268.63;;;3.04;100.00
2268;BME280;11052;43.338;25.502;2023-02-18T00:07:54;101271.91;;;2.95;100.00
2268;BME280;11052;43.338;25.502;2023-02-18T00:10:21;101264.31;;;3.01;100.00
2268;BME280;11052;43.338;25.502;2023-02-18T00:12:50;101269.03;;;2.77;100.00
2268;BME280;11052;43.338;25.502;2023-02-18T00:15:17;101260.06;;;2.50;100.00
2268;BME280;11052;43.338;25.502;2023-02-18T00:17:44;101266.25;;;2.18;100.00
2268;BME280;11052;43.338;25.502;2023-02-18T00:20:12;101267.16;;;2.20;100.00
2268;BME280;11052;43.338;25.502;2023-02-18T00:22:39;101267.38;;;2.30;100.00
2268;BME280;11052;43.338;25.502;2023-02-18T00:25:06;101264.09;;;2.38;100.00
2268;BME280;11052;43.338;25.502;2023-02-18T00:27:33;101260.72;;;2.40;100.00
2268;BME280;11052;43.338;25.502;2023-02-18T00:30:02;101255.66;;;2.43;100.00
2268;BME280;11052;43.338;25.502;2023-02-18T00:32:30;101248.91;;;2.47;100.00
2268;BME280;11052;43.338;25.502;2023-02-18T00:34:57;101248.97;;;2.50;100.00
2268;BME280;11052;43.338;25.502;2023-02-18T00:37:24;101243.97;;;2.57;100.00
2268;BME280;11052;43.338;25.502;2023-02-18T00:39:51;101236.34;;;2.59;100.00
2268;BME280;11052;43.338;25.502;2023-02-18T00:42:19;101230.31;;;2.57;100.00
2268;BME280;11052;43.338;25.502;2023-02-18T00:44:47;101232.03;;;2.58;100.00
2268;BME280;11052;43.338;25.502;2023-02-18T00:47:15;101227.78;;;2.58;100.00
2268;BME280;11052;43.338;25.502;2023-02-18T00:49:42;101217.44;;;2.52;100.00
2268;BME280;11052;43.338;25.502;2023-02-18T00:52:09;101215.53;;;2.41;100.00
2268;BME280;11052;43.338;25.502;2023-02-18T00:54:37;101211.09;;;2.30;100.00
2268;BME280;11052;43.338;25.502;2023-02-18T00:57:04;101213.53;;;2.24;100.00
2268;BME280;11052;43.338;25.502;2023-02-18T00:59:31;101209.13;;;2.17;100.00
2268;BME280;11052;43.338;25.502;2023-02-18T01:01:58;101212.56;;;2.18;100.00
2268;BME280;11052;43.338;25.502;2023-02-18T01:04:27;101205.63;;;2.12;100.00
2268;BME280;11052;43.338;25.502;2023-02-18T01:06:54;101202.00;;;2.01;100.00
2268;BME280;11052;43.338;25.502;2023-02-18T01:09:21;101192.84;;;2.12;100.00
2268;BME280;11052;43.338;25.502;2023-02-18T01:11:50;101191.19;;;2.14;100.00
2268;BME280;11052;43.338;25.502;2023-02-18T01:14:17;101189.59;;;2.21;100.00
2268;BME280;11052;43.338;25.502;2023-02-18T01:16:44;101185.50;;;2.30;100.00
2268;BME280;11052;43.338;25.502;2023-02-18T01:19:11;101182.09;;;2.30;100.00
2268;BME280;11052;43.338;25.502;2023-02-18T01:21:40;101173.59;;;2.33;100.00
2268;BME280;11052;43.338;25.502;2023-02-18T01:24:07;101174.31;;;2.24;100.00
2268;BME280;11052;43.338;25.502;2023-02-18T01:26:34;101181.66;;;2.07;100.00
2268;BME280;11052;43.338;25.502;2023-02-18T01:29:01;101181.72;;;2.10;100.00
2268;BME280;11052;43.338;25.502;2023-02-18T01:31:29;101183.38;;;2.08;100.00
2268;BME280;11052;43.338;25.502;2023-02-18T01:33:56;101186.66;;;2.01;100.00
2268;BME280;11052;43.338;25.502;2023-02-18T01:36:23;101184.66;;;1.86;100.00
2268;BME280;11052;43.338;25.502;2023-02-18T01:38:51;101183.16;;;1.96;100.00
2268;BME280;11052;43.338;25.502;2023-02-18T01:41:19;101182.25;;;1.94;100.00
2268;BME280;11052;43.338;25.502;2023-02-18T01:43:46;101178.91;;;1.96;100.00
2268;BME280;11052;43.338;25.502;2023-02-18T01:46:16;101176.34;;;1.96;100.00
2268;BME280;11052;43.338;25.502;2023-02-18T01:48:47;101172.97;;;1.97;100.00
2268;BME280;11052;43.338;25.502;2023-02-18T01:51:18;101168.66;;;1.95;100.00
2268;BME280;11052;43.338;25.502;2023-02-18T01:53:51;101166.13;;;1.96;100.00
2268;BME280;11052;43.338;25.502;2023-02-18T01:56:25;101160.97;;;1.95;100.00
2268;BME280;11052;43.338;25.502;2023-02-18T01:58:54;101148.88;;;1.86;100.00
2268;BME280;11052;43.338;25.502;2023-02-18T02:01:23;101150.59;;;1.87;100.00
2268;BME280;11052;43.338;25.502;2023-02-18T02:03:51;101149.84;;;1.91;100.00
2268;BME280;11052;43.338;25.502;2023-02-18T02:06:19;101150.63;;;1.89;100.00
2268;BME280;11052;43.338;25.502;2023-02-18T02:08:48;101144.66;;;1.88;100.00
2268;BME280;11052;43.338;25.502;2023-02-18T02:11:23;101156.66;;;1.92;100.00
2268;BME280;11052;43.338;25.502;2023-02-18T02:14:10;101149.84;;;1.91;100.00
2268;BME280;11052;43.338;25.502;2023-02-18T02:16:44;101148.84;;;1.85;100.00
2268;BME280;11052;43.338;25.502;2023-02-18T02:22:39;101151.66;;;1.53;100.00
2268;BME280;11052;43.338;25.502;2023-02-18T02:25:19;101148.91;;;1.43;100.00
2268;BME280;11052;43.338;25.502;2023-02-18T02:31:11;101138.56;;;1.37;100.00
2268;BME280;11052;43.338;25.502;2023-02-18T02:36:48;101143.97;;;1.52;100.00
2268;BME280;11052;43.338;25.502;2023-02-18T02:39:24;101143.97;;;1.52;100.00
2268;BME280;11052;43.338;25.502;2023-02-18T02:42:07;101138.81;;;1.49;100.00
2268;BME280;11052;43.338;25.502;2023-02-18T02:44:44;101138.94;;;1.55;100.00
2268;BME280;11052;43.338;25.502;2023-02-18T02:47:18;101141.03;;;1.34;100.00
2268;BME280;11052;43.338;25.502;2023-02-18T02:49:49;101137.59;;;1.31;100.00
2268;BME280;11052;43.338;25.502;2023-02-18T02:52:25;101136.81;;;1.36;100.00
2268;BME280;11052;43.338;25.502;2023-02-18T02:54:54;101142.94;;;1.42;100.00
2268;BME280;11052;43.338;25.502;2023-02-18T02:57:44;101141.19;;;1.41;100.00
2268;BME280;11052;43.338;25.502;2023-02-18T03:00:12;101135.41;;;1.50;100.00
2268;BME280;11052;43.338;25.502;2023-02-18T03:02:49;101125.28;;;1.54;100.00
2268;BME280;11052;43.338;25.502;2023-02-18T03:05:34;101136.22;;;1.47;100.00
2268;BME280;11052;43.338;25.502;2023-02-18T03:08:22;101129.19;;;1.37;100.00
2268;BME280;11052;43.338;25.502;2023-02-18T03:10:55;101142.78;;;1.36;100.00
2268;BME280;11052;43.338;25.502;2023-02-18T03:13:36;101135.91;;;1.32;100.00
2268;BME280;11052;43.338;25.502;2023-02-18T03:16:13;101136.94;;;1.40;100.00
2268;BME280;11052;43.338;25.502;2023-02-18T03:18:47;101137.78;;;1.41;100.00
2268;BME280;11052;43.338;25.502;2023-02-18T03:21:19;101141.50;;;1.56;100.00
2268;BME280;11052;43.338;25.502;2023-02-18T03:23:55;101151.09;;;1.67;100.00
2268;BME280;11052;43.338;25.502;2023-02-18T03:26:24;101146.94;;;1.72;100.00
2268;BME280;11052;43.338;25.502;2023-02-18T03:28:55;101139.34;;;1.78;100.00
2268;BME280;11052;43.338;25.502;2023-02-18T03:31:26;101142.03;;;1.84;100.00
2268;BME280;11052;43.338;25.502;2023-02-18T03:33:59;101131.78;;;1.84;100.00
2268;BME280;11052;43.338;25.502;2023-02-18T03:36:28;101141.19;;;1.85;100.00
2268;BME280;11052;43.338;25.502;2023-02-18T03:39:02;101139.41;;;1.81;100.00
2268;BME280;11052;43.338;25.502;2023-02-18T03:41:31;101137.78;;;1.84;100.00
2268;BME280;11052;43.338;25.502;2023-02-18T03:44:00;101130.16;;;1.87;100.00
2268;BME280;11052;43.338;25.502;2023-02-18T03:46:28;101134.47;;;1.90;100.00
2268;BME280;11052;43.338;25.502;2023-02-18T03:48:55;101138.69;;;1.88;100.00
2268;BME280;11052;43.338;25.502;2023-02-18T03:51:22;101143.00;;;1.90;100.00
2268;BME280;11052;43.338;25.502;2023-02-18T03:53:49;101132.69;;;1.86;100.00
2268;BME280;11052;43.338;25.502;2023-02-18T03:56:19;101127.56;;;1.86;100.00
2268;BME280;11052;43.338;25.502;2023-02-18T03:58:46;101126.75;;;1.87;100.00
2268;BME280;11052;43.338;25.502;2023-02-18T04:01:13;101122.38;;;1.81;100.00
2268;BME280;11052;43.338;25.502;2023-02-18T04:03:40;101126.50;;;1.75;100.00
2268;BME280;11052;43.338;25.502;2023-02-18T04:06:08;101117.13;;;1.74;100.00
2268;BME280;11052;43.338;25.502;2023-02-18T04:08:35;101118.00;;;1.76;100.00
2268;BME280;11052;43.338;25.502;2023-02-18T04:11:03;101112.00;;;1.74;100.00
2268;BME280;11052;43.338;25.502;2023-02-18T04:13:32;101117.19;;;1.77;100.00
2268;BME280;11052;43.338;25.502;2023-02-18T04:15:59;101110.41;;;1.79;100.00
2268;BME280;11052;43.338;25.502;2023-02-18T04:18:26;101113.94;;;1.85;100.00
2268;BME280;11052;43.338;25.502;2023-02-18T04:20:53;101110.59;;;1.89;100.00
2268;BME280;11052;43.338;25.502;2023-02-18T04:23:20;101108.00;;;1.88;100.00
2268;BME280;11052;43.338;25.502;2023-02-18T04:25:47;101119.00;;;1.82;100.00
2268;BME280;11052;43.338;25.502;2023-02-18T04:28:15;101113.09;;;1.86;100.00
2268;BME280;11052;43.338;25.502;2023-02-18T04:30:45;101116.69;;;1.96;100.00
2268;BME280;11052;43.338;25.502;2023-02-18T04:33:12;101105.66;;;1.98;100.00
2268;BME280;11052;43.338;25.502;2023-02-18T04:35:39;101091.22;;;2.02;100.00
2268;BME280;11052;43.338;25.502;2023-02-18T04:38:06;101092.78;;;1.94;100.00
2268;BME280;11052;43.338;25.502;2023-02-18T04:40:34;101098.50;;;1.81;100.00
2268;BME280;11052;43.338;25.502;2023-02-18T04:43:02;101091.59;;;1.75;100.00
2268;BME280;11052;43.338;25.502;2023-02-18T04:45:29;101091.69;;;1.81;100.00
2268;BME280;11052;43.338;25.502;2023-02-18T04:47:58;101090.91;;;1.84;100.00
2268;BME280;11052;43.338;25.502;2023-02-18T04:50:25;101085.03;;;1.89;100.00
2268;BME280;11052;43.338;25.502;2023-02-18T04:52:52;101084.34;;;1.98;100.00
2268;BME280;11052;43.338;25.502;2023-02-18T04:55:19;101080.13;;;2.00;100.00
2268;BME280;11052;43.338;25.502;2023-02-18T04:57:46;101075.16;;;2.09;100.00
2268;BME280;11052;43.338;25.502;2023-02-18T05:00:17;101070.81;;;2.04;100.00
2268;BME280;11052;43.338;25.502;2023-02-18T05:02:44;101064.06;;;2.09;100.00
2268;BME280;11052;43.338;25.502;2023-02-18T05:05:13;101067.63;;;2.18;100.00
2268;BME280;11052;43.338;25.502;2023-02-18T05:07:41;101067.72;;;2.23;100.00
2268;BME280;11052;43.338;25.502;2023-02-18T05:10:09;101064.41;;;2.30;100.00
2268;BME280;11052;43.338;25.502;2023-02-18T05:12:36;101056.88;;;2.39;100.00
2268;BME280;11052;43.338;25.502;2023-02-18T05:15:05;101049.28;;;2.44;100.00
2268;BME280;11052;43.338;25.502;2023-02-18T05:17:32;101055.38;;;2.52;100.00
2268;BME280;11052;43.338;25.502;2023-02-18T05:19:59;101040.84;;;2.51;100.00
2268;BME280;11052;43.338;25.502;2023-02-18T05:22:28;101040.91;;;2.54;100.00
2268;BME280;11052;43.338;25.502;2023-02-18T05:24:55;101039.28;;;2.62;100.00
2268;BME280;11052;43.338;25.502;2023-02-18T05:27:22;101035.09;;;2.67;100.00
2268;BME280;11052;43.338;25.502;2023-02-18T05:29:49;101036.00;;;2.71;100.00
2268;BME280;11052;43.338;25.502;2023-02-18T05:32:16;101044.44;;;2.63;100.00
2268;BME280;11052;43.338;25.502;2023-02-18T05:34:44;101037.59;;;2.64;100.00
2268;BME280;11052;43.338;25.502;2023-02-18T05:37:11;101041.97;;;2.71;100.00
2268;BME280;11052;43.338;25.502;2023-02-18T05:39:40;101043.78;;;2.78;100.00
2268;BME280;11052;43.338;25.502;2023-02-18T05:42:07;101036.19;;;2.86;100.00
2268;BME280;11052;43.338;25.502;2023-02-18T05:44:34;101032.66;;;2.76;100.00
2268;BME280;11052;43.338;25.502;2023-02-18T05:47:04;101028.47;;;2.81;100.00
2268;BME280;11052;43.338;25.502;2023-02-18T05:49:33;101025.13;;;2.87;100.00
2268;BME280;11052;43.338;25.502;2023-02-18T05:52:01;101033.84;;;3.03;100.00
2268;BME280;11052;43.338;25.502;2023-02-18T05:54:29;101032.94;;;2.97;100.00
2268;BME280;11052;43.338;25.502;2023-02-18T05:56:57;101038.09;;;3.01;100.00
2268;BME280;11052;43.338;25.502;2023-02-18T05:59:24;101040.69;;;3.02;100.00
2268;BME280;11052;43.338;25.502;2023-02-18T06:01:52;101033.13;;;3.13;100.00
2268;BME280;11052;43.338;25.502;2023-02-18T06:04:19;101037.56;;;3.27;100.00
2268;BME280;11052;43.338;25.502;2023-02-18T06:06:46;101039.19;;;3.19;100.00
2268;BME280;11052;43.338;25.502;2023-02-18T06:09:13;101036.84;;;3.39;100.00
2268;BME280;11052;43.338;25.502;2023-02-18T06:11:40;101043.66;;;3.37;100.00
2268;BME280;11052;43.338;25.502;2023-02-18T06:14:09;101039.47;;;3.45;100.00
2268;BME280;11052;43.338;25.502;2023-02-18T06:16:36;101035.38;;;3.64;100.00
2268;BME280;11052;43.338;25.502;2023-02-18T06:19:03;101039.72;;;3.71;100.00
2268;BME280;11052;43.338;25.502;2023-02-18T06:21:31;101034.59;;;3.71;100.00
2268;BME280;11052;43.338;25.502;2023-02-18T06:23:58;101038.91;;;3.77;100.00
2268;BME280;11052;43.338;25.502;2023-02-18T06:26:25;101029.56;;;3.82;100.00
2268;BME280;11052;43.338;25.502;2023-02-18T06:28:52;101016.88;;;3.97;100.00
2268;BME280;11052;43.338;25.502;2023-02-18T06:31:21;101023.81;;;4.07;100.00
2268;BME280;11052;43.338;25.502;2023-02-18T06:33:48;101024.75;;;4.18;100.00
2268;BME280;11052;43.338;25.502;2023-02-18T06:36:15;101014.53;;;4.24;100.00
2268;BME280;11052;43.338;25.502;2023-02-18T06:38:44;101012.88;;;4.39;100.00
2268;BME280;11052;43.338;25.502;2023-02-18T06:41:12;101015.47;;;4.42;100.00
2268;BME280;11052;43.338;25.502;2023-02-18T06:43:40;101016.38;;;4.50;100.00
2268;BME280;11052;43.338;25.502;2023-02-18T06:46:07;101021.53;;;4.51;100.00
2268;BME280;11052;43.338;25.502;2023-02-18T06:48:36;101030.19;;;4.66;100.00
2268;BME280;11052;43.338;25.502;2023-02-18T06:51:04;101013.13;;;4.81;100.00
2268;BME280;11052;43.338;25.502;2023-02-18T06:53:31;101025.19;;;4.93;100.00
2268;BME280;11052;43.338;25.502;2023-02-18T06:55:58;101022.69;;;5.13;100.00
2268;BME280;11052;43.338;25.502;2023-02-18T06:58:25;101027.06;;;5.52;100.00
2268;BME280;11052;43.338;25.502;2023-02-18T07:00:53;101033.97;;;5.71;100.00
2268;BME280;11052;43.338;25.502;2023-02-18T07:03:20;101031.41;;;5.79;100.00
2268;BME280;11052;43.338;25.502;2023-02-18T07:05:48;101034.03;;;5.97;100.00
2268;BME280;11052;43.338;25.502;2023-02-18T07:08:17;101037.44;;;6.16;100.00
2268;BME280;11052;43.338;25.502;2023-02-18T07:10:44;101037.44;;;6.30;100.00
2268;BME280;11052;43.338;25.502;2023-02-18T07:13:11;101036.56;;;6.41;100.00
2268;BME280;11052;43.338;25.502;2023-02-18T07:15:38;101034.84;;;6.46;100.00
2268;BME280;11052;43.338;25.502;2023-02-18T07:18:06;101027.97;;;6.47;100.00
2268;BME280;11052;43.338;25.502;2023-02-18T07:20:33;101036.53;;;6.66;100.00
2268;BME280;11052;43.338;25.502;2023-02-18T07:23:01;101032.94;;;7.05;100.00
2268;BME280;11052;43.338;25.502;2023-02-18T07:25:28;101030.94;;;7.66;100.00
2268;BME280;11052;43.338;25.502;2023-02-18T07:27:55;101033.03;;;8.27;100.00
2268;BME280;11052;43.338;25.502;2023-02-18T07:30:23;101036.03;;;8.72;100.00
2268;BME280;11052;43.338;25.502;2023-02-18T07:32:50;101040.16;;;8.90;100.00
2268;BME280;11052;43.338;25.502;2023-02-18T07:35:17;101033.94;;;9.04;100.00
2268;BME280;11052;43.338;25.502;2023-02-18T07:37:46;101021.81;;;9.09;100.00
2268;BME280;11052;43.338;25.502;2023-02-18T07:40:18;101040.50;;;9.33;100.00
2268;BME280;11052;43.338;25.502;2023-02-18T07:42:45;101032.47;;;9.52;100.00
2268;BME280;11052;43.338;25.502;2023-02-18T07:45:13;101038.28;;;9.65;100.00
2268;BME280;11052;43.338;25.502;2023-02-18T07:47:40;101023.44;;;9.78;100.00
2268;BME280;11052;43.338;25.502;2023-02-18T07:50:10;101026.75;;;9.88;100.00
2268;BME280;11052;43.338;25.502;2023-02-18T07:52:37;101026.66;;;9.94;100.00
2268;BME280;11052;43.338;25.502;2023-02-18T07:55:05;101031.47;;;10.16;100.00
2268;BME280;11052;43.338;25.502;2023-02-18T07:57:33;101032.25;;;10.23;100.00
2268;BME280;11052;43.338;25.502;2023-02-18T08:00:22;101031.28;;;10.29;100.00
2268;BME280;11052;43.338;25.502;2023-02-18T08:02:49;101030.16;;;10.42;100.00
2268;BME280;11052;43.338;25.502;2023-02-18T08:05:16;101030.09;;;10.93;93.12
2268;BME280;11052;43.338;25.502;2023-02-18T08:07:43;101026.06;;;11.58;82.42
2268;BME280;11052;43.338;25.502;2023-02-18T08:10:10;101040.59;;;12.05;76.80
2268;BME280;11052;43.338;25.502;2023-02-18T08:12:39;101027.78;;;12.32;76.71
2268;BME280;11052;43.338;25.502;2023-02-18T08:15:07;101035.25;;;12.44;75.34
2268;BME280;11052;43.338;25.502;2023-02-18T08:17:34;101024.41;;;12.61;73.43
2268;BME280;11052;43.338;25.502;2023-02-18T08:20:01;101024.22;;;12.68;73.03
2268;BME280;11052;43.338;25.502;2023-02-18T08:22:28;101027.84;;;12.94;70.81
2268;BME280;11052;43.338;25.502;2023-02-18T08:24:55;101033.41;;;13.11;68.94
2268;BME280;11052;43.338;25.502;2023-02-18T08:27:23;101033.13;;;13.22;68.87
2268;BME280;11052;43.338;25.502;2023-02-18T08:29:51;101032.88;;;13.31;68.91
2268;BME280;11052;43.338;25.502;2023-02-18T08:32:20;101031.69;;;13.41;68.92
2268;BME280;11052;43.338;25.502;2023-02-18T08:34:48;101034.53;;;13.33;66.46
2268;BME280;11052;43.338;25.502;2023-02-18T08:37:15;101031.78;;;13.38;65.78
2268;BME280;11052;43.338;25.502;2023-02-18T08:39:42;101031.22;;;13.56;66.40
2268;BME280;11052;43.338;25.502;2023-02-18T08:42:09;101031.63;;;13.72;67.07
2268;BME280;11052;43.338;25.502;2023-02-18T08:44:36;101023.69;;;14.01;66.57
2268;BME280;11052;43.338;25.502;2023-02-18T08:47:05;101015.47;;;14.14;65.85
2268;BME280;11052;43.338;25.502;2023-02-18T08:49:32;101013.16;;;14.31;65.08
2268;BME280;11052;43.338;25.502;2023-02-18T08:52:01;101014.53;;;14.41;62.06
2268;BME280;11052;43.338;25.502;2023-02-18T08:54:28;101012.56;;;14.49;61.50
2268;BME280;11052;43.338;25.502;2023-02-18T08:56:56;101005.38;;;14.56;62.51
2268;BME280;11052;43.338;25.502;2023-02-18T08:59:23;101007.53;;;14.68;61.66
2268;BME280;11052;43.338;25.502;2023-02-18T09:01:50;101011.75;;;14.95;62.35
2268;BME280;11052;43.338;25.502;2023-02-18T09:04:19;100998.69;;;15.19;61.34
2268;BME280;11052;43.338;25.502;2023-02-18T09:06:47;100998.94;;;15.58;62.21
2268;BME280;11052;43.338;25.502;2023-02-18T09:09:14;101002.06;;;15.66;58.09
2268;BME280;11052;43.338;25.502;2023-02-18T09:11:42;101004.19;;;15.78;58.73
2268;BME280;11052;43.338;25.502;2023-02-18T09:14:10;101000.47;;;15.84;56.10
2268;BME280;11052;43.338;25.502;2023-02-18T09:16:38;101010.75;;;15.88;56.38
2268;BME280;11052;43.338;25.502;2023-02-18T09:19:05;101000.97;;;15.93;55.05
2268;BME280;11052;43.338;25.502;2023-02-18T09:21:34;100999.13;;;15.95;58.29
2268;BME280;11052;43.338;25.502;2023-02-18T09:24:02;100998.38;;;16.14;55.02
2268;BME280;11052;43.338;25.502;2023-02-18T09:26:29;101002.09;;;16.08;55.11
2268;BME280;11052;43.338;25.502;2023-02-18T09:28:56;101008.56;;;15.99;56.96
2268;BME280;11052;43.338;25.502;2023-02-18T09:31:25;101017.81;;;15.86;55.41
2268;BME280;11052;43.338;25.502;2023-02-18T09:33:55;101017.28;;;15.78;54.35
2268;BME280;11052;43.338;25.502;2023-02-18T09:36:22;101017.28;;;15.78;54.31
2268;BME280;11052;43.338;25.502;2023-02-18T09:38:51;101009.00;;;15.67;54.43
2268;BME280;11052;43.338;25.502;2023-02-18T09:41:27;101009.13;;;15.64;55.05
2268;BME280;11052;43.338;25.502;2023-02-18T09:43:58;100995.56;;;15.54;54.38
2268;BME280;11052;43.338;25.502;2023-02-18T09:46:29;100997.44;;;15.51;55.85
2268;BME280;11052;43.338;25.502;2023-02-18T09:49:01;100999.16;;;15.52;55.44
2268;BME280;11052;43.338;25.502;2023-02-18T09:51:29;100984.50;;;15.48;55.34
2268;BME280;11052;43.338;25.502;2023-02-18T09:53:58;100993.72;;;15.34;55.77
2268;BME280;11052;43.338;25.502;2023-02-18T09:56:28;100988.78;;;15.27;55.31
2268;BME280;11052;43.338;25.502;2023-02-18T09:58:57;100977.25;;;15.32;54.84
2268;BME280;11052;43.338;25.502;2023-02-18T10:01:30;100971.97;;;15.34;55.74
2268;BME280;11052;43.338;25.502;2023-02-18T10:04:02;100960.31;;;15.43;55.33
2268;BME280;11052;43.338;25.502;2023-02-18T10:06:32;100952.47;;;15.43;54.29
2268;BME280;11052;43.338;25.502;2023-02-18T10:09:03;100962.06;;;15.42;54.74
2268;BME280;11052;43.338;25.502;2023-02-18T10:11:34;100953.38;;;15.63;54.63
2268;BME280;11052;43.338;25.502;2023-02-18T10:14:08;100944.69;;;15.63;54.52
2268;BME280;11052;43.338;25.502;2023-02-18T10:16:37;100952.75;;;15.79;55.75
2268;BME280;11052;43.338;25.502;2023-02-18T10:19:19;100933.91;;;15.92;54.78
2268;BME280;11052;43.338;25.502;2023-02-18T10:21:47;100943.75;;;15.86;52.74
2268;BME280;11052;43.338;25.502;2023-02-18T10:24:24;100941.03;;;15.67;54.52
2268;BME280;11052;43.338;25.502;2023-02-18T10:26:53;100943.53;;;15.70;55.26
2268;BME280;11052;43.338;25.502;2023-02-18T10:29:21;100939.28;;;15.67;55.72
2268;BME280;11052;43.338;25.502;2023-02-18T10:31:53;100936.94;;;15.82;55.26
2268;BME280;11052;43.338;25.502;2023-02-18T10:34:32;100927.81;;;15.92;55.07
2268;BME280;11052;43.338;25.502;2023-02-18T10:37:07;100920.94;;;15.89;55.23
2268;BME280;11052;43.338;25.502;2023-02-18T10:39:48;100920.16;;;16.08;55.31
2268;BME280;11052;43.338;25.502;2023-02-18T10:42:30;100908.78;;;16.29;55.11
2268;BME280;11052;43.338;25.502;2023-02-18T10:45:07;100900.19;;;16.46;55.53
2268;BME280;11052;43.338;25.502;2023-02-18T10:47:44;100894.41;;;16.77;54.84
2268;BME280;11052;43.338;25.502;2023-02-18T10:50:22;100895.84;;;16.63;54.35
2268;BME280;11052;43.338;25.502;2023-02-18T10:52:52;100887.09;;;16.46;56.67
2268;BME280;11052;43.338;25.502;2023-02-18T10:55:34;100876.84;;;16.41;56.18
2268;BME280;11052;43.338;25.502;2023-02-18T10:58:02;100870.09;;;16.35;56.85
2268;BME280;11052;43.338;25.502;2023-02-18T11:00:34;100886.09;;;16.29;57.48
2268;BME280;11052;43.338;25.502;2023-02-18T11:03:13;100867.97;;;16.25;57.24
2268;BME280;11052;43.338;25.502;2023-02-18T11:05:42;100878.72;;;16.19;58.23
2268;BME280;11052;43.338;25.502;2023-02-18T11:08:14;100880.91;;;16.28;57.21
2268;BME280;11052;43.338;25.502;2023-02-18T11:10:45;100870.84;;;16.19;58.48
2268;BME280;11052;43.338;25.502;2023-02-18T11:13:14;100883.66;;;16.25;59.99
2268;BME280;11052;43.338;25.502;2023-02-18T11:15:58;100884.38;;;16.28;59.37
2268;BME280;11052;43.338;25.502;2023-02-18T11:18:31;100877.53;;;16.26;58.54
2268;BME280;11052;43.338;25.502;2023-02-18T11:21:03;100886.09;;;16.29;59.02
2268;BME280;11052;43.338;25.502;2023-02-18T11:23:45;100871.03;;;16.34;58.96
2268;BME280;11052;43.338;25.502;2023-02-18T11:26:15;100869.31;;;16.33;59.59
2268;BME280;11052;43.338;25.502;2023-02-18T11:28:45;100857.22;;;16.31;59.14
2268;BME280;11052;43.338;25.502;2023-02-18T11:31:34;100864.75;;;16.38;59.33
2268;BME280;11052;43.338;25.502;2023-02-18T11:34:05;100867.81;;;16.47;60.70
2268;BME280;11052;43.338;25.502;2023-02-18T11:36:34;100876.63;;;16.46;61.11
2268;BME280;11052;43.338;25.502;2023-02-18T11:39:05;100864.16;;;16.51;60.03
2268;BME280;11052;43.338;25.502;2023-02-18T11:41:36;100875.97;;;16.59;60.42
2268;BME280;11052;43.338;25.502;2023-02-18T11:44:06;100870.09;;;16.54;61.06
2268;BME280;11052;43.338;25.502;2023-02-18T11:46:55;100866.22;;;16.44;60.94
2268;BME280;11052;43.338;25.502;2023-02-18T11:49:23;100871.03;;;16.34;61.20
2268;BME280;11052;43.338;25.502;2023-02-18T11:51:51;100869.13;;;16.38;61.65
2268;BME280;11052;43.338;25.502;2023-02-18T11:54:24;100872.72;;;16.54;60.47
2268;BME280;11052;43.338;25.502;2023-02-18T11:56:58;100869.19;;;16.36;60.61
2268;BME280;11052;43.338;25.502;2023-02-18T11:59:26;100864.16;;;16.32;60.32
2268;BME280;11052;43.338;25.502;2023-02-18T12:02:01;100864.81;;;16.37;59.92
2268;BME280;11052;43.338;25.502;2023-02-18T12:04:35;100859.44;;;16.40;59.74
2268;BME280;11052;43.338;25.502;2023-02-18T12:07:14;100862.84;;;16.42;60.64
2268;BME280;11052;43.338;25.502;2023-02-18T12:09:46;100856.88;;;16.38;59.27
2268;BME280;11052;43.338;25.502;2023-02-18T12:12:18;100865.31;;;16.45;60.97
2268;BME280;11052;43.338;25.502;2023-02-18T12:14:51;100864.53;;;16.43;60.10
2268;BME280;11052;43.338;25.502;2023-02-18T12:20:38;100863.38;;;16.49;60.59
2268;BME280;11052;43.338;25.502;2023-02-18T12:23:12;100858.63;;;16.57;61.65
2268;BME280;11052;43.338;25.502;2023-02-18T12:25:50;100848.63;;;16.66;61.72
2268;BME280;11052;43.338;25.502;2023-02-18T12:28:43;100846.25;;;16.60;61.65
2268;BME280;11052;43.338;25.502;2023-02-18T12:31:33;100840.56;;;16.71;61.41
2268;BME280;11052;43.338;25.502;2023-02-18T12:34:21;100836.66;;;16.80;60.10
2268;BME280;11052;43.338;25.502;2023-02-18T12:37:02;100838.38;;;16.81;60.89
2268;BME280;11052;43.338;25.502;2023-02-18T12:39:48;100835.03;;;16.96;61.14
2268;BME280;11052;43.338;25.502;2023-02-18T12:42:34;100836.19;;;17.08;61.00
2268;BME280;11052;43.338;25.502;2023-02-18T12:45:23;100824.69;;;17.29;60.28
2268;BME280;11052;43.338;25.502;2023-02-18T12:48:25;100821.28;;;17.27;59.37
2268;BME280;11052;43.338;25.502;2023-02-18T12:51:10;100829.53;;;17.19;60.80
2268;BME280;11052;43.338;25.502;2023-02-18T12:54:01;100830.19;;;17.06;60.98
2268;BME280;11052;43.338;25.502;2023-02-18T12:56:53;100822.47;;;17.02;61.90
2268;BME280;11052;43.338;25.502;2023-02-18T12:59:46;100820.06;;;16.98;62.33
2268;BME280;11052;43.338;25.502;2023-02-18T13:02:35;100831.47;;;16.97;63.17
2268;BME280;11052;43.338;25.502;2023-02-18T13:05:12;100818.91;;;16.86;62.64
2268;BME280;11052;43.338;25.502;2023-02-18T13:08:01;100832.16;;;16.64;62.20
2268;BME280;11052;43.338;25.502;2023-02-18T13:10:53;100820.38;;;16.54;61.90
2268;BME280;11052;43.338;25.502;2023-02-18T13:13:23;100819.13;;;16.44;61.96
2268;BME280;11052;43.338;25.502;2023-02-18T13:15:54;100815.31;;;16.32;63.45
2268;BME280;11052;43.338;25.502;2023-02-18T13:18:27;100820.53;;;16.32;61.83
2268;BME280;11052;43.338;25.502;2023-02-18T13:20:59;100820.16;;;16.21;62.73